EGCC Airport Information

Runway Information
Runway 05L Length 10000 ft width 150 ft
Elevation 212 ft Threshold 1401 ft Heading 51
Runway 23R Length 10000 ft Width 150 ft
Elevation 249 ft Threshold 600 ft Heading 231
Runway 05R Length 9997 ft width 150 ft
Elevation 186 ft Threshold 604 ft Heading 51
Runway 23L Length 9997 ft Width 150 ft
Elevation 227 ft Threshold 604 ft Heading 231
Airport Frequencies
Type APP Name APP Frequency 135 MHZ
Type ATIS Name ATIS Frequency 128.175 MHZ
Type CLD Name CLNC DEL Frequency 121.7 MHZ
Type GND Name GND Frequency 121.85 MHZ
Type TWR Name TWR Frequency 118.625 MHZ
Airport Navaids
Type NDB Name Manchester Frequency 428 KHZ
Type VOR-DME Name Manchester Frequency 113550 KHZ
Airport Weather Information & NOTAM
ADDS - METARS form results

(1706 UTC 17 July 2019)
Data provider http://aviationweather.gov/metar/data/
 
METAR text: EGCC 171650Z 22005KT 9999 -RA SCT030 BKN041 16/13 Q1011 TEMPO 7000 RA
Conditions at: EGCC (MANCHESTER INTL , GB) observed 1650 UTC 17 July 2019
Temperature: 16.0°C (61°F)
Dewpoint: 13.0°C (55°F) [RH = 82%]
Pressure (altimeter): 29.85 inches Hg (1011.0 mb)
Winds: from the SW (220 degrees) at 6 MPH (5 knots; 2.6 m/s)
Visibility: 6 or more miles (10+ km)
Ceiling: 4100 feet AGL
Clouds: scattered clouds at 3000 feet AGL
broken clouds at 4100 feet AGL
Weather: -RA  (light rain)

METAR text: EGCC 171620Z AUTO 24010KT 8000 -RA BKN043/// //////TCU 17/14 Q1011 BECMG 9999
Conditions at: EGCC (MANCHESTER INTL , GB) observed 1620 UTC 17 July 2019
Temperature: 17.0°C (63°F)
Dewpoint: 14.0°C (57°F) [RH = 82%]
Pressure (altimeter): 29.85 inches Hg (1011.0 mb)
Winds: from the WSW (240 degrees) at 12 MPH (10 knots; 5.1 m/s)
Visibility: 5 miles ( 8 km)
Ceiling: 4300 feet AGL
Clouds: broken clouds at 4300 feet AGL
Weather: -RA  (light rain)

Forecast for: EGCC (MANCHESTER INTL , GB)
Text: TAF EGCC 171652Z 1718/1824 19008KT 9999 FEW035
Forecast period: 1800 UTC 17 July 2019 to 0000 UTC 18 July 2019
Forecast type: FROM: standard forecast or significant change
Winds: from the S (190 degrees) at 9 MPH (8 knots; 4.1 m/s)
Visibility: 6 or more miles 10+ km)
Ceiling: at least 12,000 feet AGL
Clouds: few clouds at 3500 feet AGL
Weather: no significant weather forecast for this period
Text: TEMPO 1718/1804 7000 RA BKN009
Forecast period: 1800 UTC 17 July 2019 to 0400 UTC 18 July 2019
Forecast type: TEMPORARY: The following changes expected for less than half the time period
Visibility: 4 miles (7 km)
Ceiling: 900 feet AGL
Clouds: broken clouds at 900 feet AGL
Weather: RA  (moderate rain)
Text: BECMG 1800/1803 27010KT
Forecast period: 0000 UTC 18 July 2019 to 0000 UTC 19 July 2019
Forecast type: BECOMING: Conditions expected to become as follows by 0300 UTC 18 July 2019
Winds: from the W (270 degrees) at 12 MPH (10 knots; 5.1 m/s)
Visibility: 6 or more miles 10+ km)
Ceiling: at least 12,000 feet AGL
Clouds: few clouds at 3500 feet AGL
Weather: no significant weather forecast for this period